KIKG

Kleberg County Airport

Kingsville, Texas, USA
METAR KIKG 161335Z AUTO 00000KT 10SM CLR 02/01 A3030 RMK AO2 T00230014
Observed Flight Rules
Dec-16 @ 13:35 UTC (24 minutes ago) Visual Flight Rules
Visibility Clouds
10 miles
  • Clear skies
Temperatures Readings
Current 2°C / 36°F
Dewpoint 1°C / 34°F
Humidity 93%
Altimeter 30.3" Hg
Pressure 1026 hPa
Elevation 40
METAR KIKG 161335Z AUTO 00000KT 10SM CLR 02/01 A3030 RMK AO2 T00230014
Observed Flight Rules
Dec-16 @ 13:35 UTC
(24 minutes ago)
VFR
Clouds
  • Clear skies
Temperature Dewpoint
2°C / 36°F 1°C / 34°F
Humidity Altimeter Pressure
93% 30.3" Hg 1026 hPa